Time;durP1;ratioP1;P1;durP2;ratioP2;P2;SDS_P1;SDS_P2;PMS_P1;PMS_P2;Temp;Humidity;BMP_temperature;BMP_pressure;BME280_temperature;BME280_humidity;BME280_pressure;Samples;Min_cycle;Max_cycle;Signal;HPM_P1;HPM_P2
2022/12/05 00:01:41;;;;;;;53.58;16.90;;;4.20;99.90;;;;;;5136890;28;20063;-78
2022/12/05 00:04:12;;;;;;;56.40;18.00;;;4.20;99.90;;;;;;5121135;28;20040;-78
2022/12/05 00:06:44;;;;;;;52.47;17.13;;;4.20;99.90;;;;;;5137947;28;20414;-78
2022/12/05 00:09:11;;;;;;;55.95;16.15;;;4.20;99.90;;;;;;5119981;28;20093;-78
2022/12/05 00:11:39;;;;;;;53.05;16.50;;;4.20;99.90;;;;;;5102174;28;20055;-77
2022/12/05 00:14:07;;;;;;;47.63;15.65;;;4.20;99.90;;;;;;5117651;28;20074;-78
2022/12/05 00:16:35;;;;;;;52.58;16.63;;;4.20;99.90;;;;;;5116710;28;20043;-79
2022/12/05 00:19:04;;;;;;;56.70;16.90;;;4.20;99.90;;;;;;5134902;28;20090;-77
2022/12/05 00:21:32;;;;;;;57.30;17.40;;;4.20;99.90;;;;;;5134322;28;20043;-78
2022/12/05 00:23:59;;;;;;;53.85;18.33;;;4.20;99.90;;;;;;5134322;27;20069;-77
2022/12/05 00:26:25;;;;;;;51.60;15.85;;;4.20;99.90;;;;;;5118827;27;20043;-78
2022/12/05 00:28:52;;;;;;;51.20;17.50;;;4.20;99.90;;;;;;5102881;27;20074;-78
2022/12/05 00:31:22;;;;;;;53.25;16.80;;;4.20;99.90;;;;;;5137926;27;20051;-77
2022/12/05 00:33:48;;;;;;;54.88;16.80;;;4.20;99.90;;;;;;5102142;27;20043;-77
2022/12/05 00:36:17;;;;;;;52.92;15.27;;;4.20;99.90;;;;;;5138370;27;20043;-78
2022/12/05 00:38:43;;;;;;;48.15;15.13;;;4.30;99.90;;;;;;5119405;27;20036;-78
2022/12/05 00:41:12;;;;;;;49.13;16.05;;;4.20;99.90;;;;;;5119600;27;20505;-77
2022/12/05 00:43:39;;;;;;;44.83;15.15;;;4.30;99.90;;;;;;5137842;27;20471;-76
2022/12/05 00:46:09;;;;;;;45.03;14.35;;;4.30;99.90;;;;;;5119467;27;20071;-78
2022/12/05 00:48:35;;;;;;;44.53;14.77;;;4.30;99.90;;;;;;5102952;27;20057;-77
2022/12/05 00:51:25;;;;;;;47.17;14.47;;;4.30;99.90;;;;;;5137596;27;20058;-78
2022/12/05 00:53:51;;;;;;;38.40;13.07;;;4.40;99.90;;;;;;5137448;27;20167;-76
2022/12/05 00:56:20;;;;;;;45.42;14.90;;;4.40;99.90;;;;;;5118784;27;20174;-78
2022/12/05 00:58:46;;;;;;;44.08;14.15;;;4.40;99.90;;;;;;5101946;27;20089;-78
2022/12/05 01:01:18;;;;;;;44.10;13.50;;;4.40;99.90;;;;;;5118435;27;20051;-76
2022/12/05 01:03:44;;;;;;;38.72;13.23;;;4.40;99.90;;;;;;5118839;27;20116;-76
2022/12/05 01:06:11;;;;;;;45.28;14.00;;;4.40;99.90;;;;;;5136850;27;20047;-79
2022/12/05 01:08:37;;;;;;;43.03;14.43;;;4.50;99.90;;;;;;5102207;27;20158;-78
2022/12/05 01:11:05;;;;;;;43.15;14.50;;;4.50;99.90;;;;;;5101536;27;20138;-79
2022/12/05 01:13:31;;;;;;;46.72;17.40;;;4.50;99.90;;;;;;5118145;27;20367;-78
2022/12/05 01:15:57;;;;;;;46.47;14.10;;;4.50;99.90;;;;;;5118417;27;20051;-78
2022/12/05 01:18:24;;;;;;;48.60;15.00;;;4.50;99.90;;;;;;5136629;27;20504;-77
2022/12/05 01:20:51;;;;;;;49.58;16.42;;;4.50;99.90;;;;;;5101812;27;20046;-78
2022/12/05 01:23:18;;;;;;;42.08;13.35;;;4.60;99.90;;;;;;5101787;27;20373;-78
2022/12/05 01:25:47;;;;;;;48.47;16.60;;;4.60;99.90;;;;;;5101506;27;20035;-77
2022/12/05 01:28:14;;;;;;;47.92;14.70;;;4.60;99.90;;;;;;5136487;27;20131;-77
2022/12/05 01:30:43;;;;;;;49.42;17.10;;;4.60;99.90;;;;;;5136422;27;20047;-77
2022/12/05 01:33:09;;;;;;;48.08;14.88;;;4.60;99.90;;;;;;5119696;27;20039;-76
2022/12/05 01:35:39;;;;;;;52.33;15.90;;;4.60;99.90;;;;;;5119137;27;20050;-78
2022/12/05 01:38:06;;;;;;;49.95;15.70;;;4.60;99.90;;;;;;5108445;27;20051;-74
2022/12/05 01:40:34;;;;;;;53.83;18.88;;;4.60;99.90;;;;;;5103283;27;20074;-76
2022/12/05 01:43:01;;;;;;;46.50;15.50;;;4.60;99.90;;;;;;5109024;27;20139;-76
2022/12/05 01:45:38;;;;;;;52.17;18.70;;;4.50;99.90;;;;;;5119077;27;20047;-77
2022/12/05 01:48:15;;;;;;;52.08;17.30;;;4.60;99.90;;;;;;5118768;27;20050;-77
2022/12/05 01:50:41;;;;;;;51.95;18.55;;;4.60;99.90;;;;;;5136722;27;20043;-75
2022/12/05 01:53:07;;;;;;;51.25;17.60;;;4.50;99.90;;;;;;5083662;27;20126;-75
2022/12/05 01:55:35;;;;;;;55.35;18.20;;;4.50;99.90;;;;;;5101132;27;20494;-76
2022/12/05 01:58:02;;;;;;;57.35;22.58;;;4.60;99.90;;;;;;5117752;27;20047;-77
2022/12/05 02:00:28;;;;;;;48.67;17.13;;;4.50;99.90;;;;;;5117255;27;20501;-77
2022/12/05 02:02:58;;;;;;;62.38;24.83;;;4.50;99.90;;;;;;5100601;27;20055;-77
2022/12/05 02:05:30;;;;;;;48.25;15.20;;;4.60;99.90;;;;;;5136364;27;20046;-75
2022/12/05 02:07:58;;;;;;;53.35;18.45;;;4.50;99.90;;;;;;5100265;27;20117;-78
2022/12/05 02:10:24;;;;;;;58.58;17.52;;;4.60;99.90;;;;;;5117069;27;20474;-77
2022/12/05 02:12:51;;;;;;;58.53;19.27;;;4.60;99.90;;;;;;5116737;27;20046;-76
2022/12/05 02:15:41;;;;;;;54.47;17.73;;;4.50;99.90;;;;;;5100030;27;20145;-77
2022/12/05 02:18:25;;;;;;;59.20;21.27;;;4.60;99.90;;;;;;5135922;27;20051;-77
2022/12/05 02:21:15;;;;;;;56.80;17.90;;;4.60;99.90;;;;;;5118596;27;20478;-78
2022/12/05 02:23:56;;;;;;;63.45;19.83;;;4.60;99.90;;;;;;5146581;27;20118;-79
2022/12/05 02:26:37;;;;;;;61.63;19.75;;;4.60;99.90;;;;;;5126038;27;20118;-77
2022/12/05 02:29:27;;;;;;;64.07;19.65;;;4.70;99.90;;;;;;5121048;27;20039;-77
2022/12/05 02:31:56;;;;;;;55.83;18.35;;;4.70;99.90;;;;;;5138022;27;20035;-77
2022/12/05 02:34:33;;;;;;;60.50;19.00;;;4.70;99.90;;;;;;5118617;27;20046;-77
2022/12/05 02:37:11;;;;;;;57.30;20.45;;;4.70;99.90;;;;;;5137134;27;20350;-76
2022/12/05 02:39:50;;;;;;;65.75;24.27;;;4.70;99.90;;;;;;5121304;27;20046;-78
2022/12/05 02:42:44;;;;;;;57.03;19.08;;;4.70;99.90;;;;;;5104011;27;20054;-77
2022/12/05 02:45:13;;;;;;;59.50;18.23;;;4.70;99.90;;;;;;5121584;27;20043;-78
2022/12/05 02:47:44;;;;;;;61.35;18.77;;;4.70;99.90;;;;;;5106245;27;20035;-77
2022/12/05 02:50:15;;;;;;;70.68;22.73;;;4.60;99.90;;;;;;5108014;27;20043;-75
2022/12/05 02:52:42;;;;;;;67.22;20.83;;;4.60;99.90;;;;;;5138963;27;20095;-79
2022/12/05 02:55:08;;;;;;;61.05;19.02;;;4.70;99.90;;;;;;5102371;27;20046;-76
2022/12/05 02:57:37;;;;;;;64.80;18.65;;;4.60;99.90;;;;;;5117483;27;20496;-76
2022/12/05 03:00:04;;;;;;;63.35;20.05;;;4.70;99.90;;;;;;5116508;27;20047;-77
2022/12/05 03:02:32;;;;;;;61.30;18.85;;;4.70;99.90;;;;;;5135139;27;20390;-79
2022/12/05 03:05:18;;;;;;;66.32;19.95;;;4.70;99.90;;;;;;5135550;27;20043;-77
2022/12/05 03:07:47;;;;;;;63.30;18.40;;;4.70;99.90;;;;;;5117198;27;20038;-79
2022/12/05 03:10:15;;;;;;;67.43;21.52;;;4.70;99.90;;;;;;5117257;27;20054;-77
2022/12/05 03:12:46;;;;;;;65.65;19.45;;;4.70;99.90;;;;;;5116394;27;20043;-78
2022/12/05 03:15:17;;;;;;;67.18;19.52;;;4.70;99.90;;;;;;5116584;27;20107;-77
2022/12/05 03:17:57;;;;;;;75.47;23.27;;;4.70;99.90;;;;;;5099225;27;20042;-75
2022/12/05 03:20:35;;;;;;;75.80;19.95;;;4.70;99.90;;;;;;5116469;27;20100;-77
2022/12/05 03:23:19;;;;;;;62.33;20.13;;;4.70;99.90;;;;;;5117242;27;20106;-76
2022/12/05 03:26:19;;;;;;;63.47;19.25;;;4.70;99.90;;;;;;5099111;27;20058;-80
2022/12/05 03:29:00;;;;;;;60.25;17.15;;;4.80;99.90;;;;;;5116218;27;20175;-77
2022/12/05 03:31:38;;;;;;;69.55;21.00;;;4.80;99.90;;;;;;5134557;27;20118;-79
2022/12/05 03:34:09;;;;;;;56.25;15.50;;;4.80;99.90;;;;;;5115480;27;20046;-76
2022/12/05 03:36:42;;;;;;;73.22;21.48;;;4.90;99.90;;;;;;5116408;28;20133;-76
2022/12/05 03:39:22;;;;;;;70.85;20.70;;;4.90;99.90;;;;;;5116246;27;20086;-77
2022/12/05 03:42:02;;;;;;;77.75;24.98;;;4.90;99.90;;;;;;5133658;27;20480;-77
2022/12/05 03:44:57;;;;;;;74.88;20.88;;;4.80;99.90;;;;;;5134410;27;20043;-75
2022/12/05 03:47:39;;;;;;;70.35;20.42;;;4.90;99.90;;;;;;5115295;28;20055;-75
2022/12/05 03:50:13;;;;;;;69.28;20.55;;;4.90;99.90;;;;;;5133516;28;20402;-77
2022/12/05 03:52:45;;;;;;;76.03;21.17;;;4.90;99.90;;;;;;5098720;28;20079;-76
2022/12/05 03:55:12;;;;;;;78.75;23.58;;;4.90;99.90;;;;;;5115549;28;20478;-76
2022/12/05 03:57:54;;;;;;;70.07;20.90;;;4.90;99.90;;;;;;5133486;28;20047;-77
2022/12/05 04:00:22;;;;;;;81.22;23.95;;;4.90;99.90;;;;;;5134718;27;20111;-77
2022/12/05 04:03:06;;;;;;;75.70;22.50;;;4.90;99.90;;;;;;5119781;27;20050;-78
2022/12/05 04:05:51;;;;;;;77.82;20.75;;;4.90;99.90;;;;;;5138165;27;20387;-78
2022/12/05 04:08:49;;;;;;;88.10;29.25;;;5.00;99.90;;;;;;5120492;27;20054;-78
2022/12/05 04:11:19;;;;;;;69.05;18.83;;;5.00;99.90;;;;;;5119864;27;20371;-75
2022/12/05 04:13:51;;;;;;;77.65;22.73;;;5.00;99.90;;;;;;5119811;27;20104;-76
2022/12/05 04:19:15;;;;;;;69.22;18.65;;;5.00;99.90;;;;;;5137729;27;20047;-75
2022/12/05 04:21:46;;;;;;;84.88;23.15;;;5.10;99.90;;;;;;5120239;27;20417;-75
2022/12/05 04:27:30;;;;;;;64.57;18.65;;;5.00;99.90;;;;;;5137976;27;20079;-76
2022/12/05 04:30:17;;;;;;;73.03;20.92;;;5.00;99.90;;;;;;5047044;27;20060;-77
2022/12/05 04:32:59;;;;;;;72.90;20.58;;;5.00;99.90;;;;;;5118992;27;20455;-76
2022/12/05 04:35:31;;;;;;;68.43;19.38;;;5.00;99.90;;;;;;5137382;27;20046;-76
2022/12/05 04:38:07;;;;;;;65.75;18.85;;;5.00;99.90;;;;;;5118697;27;20107;-76
2022/12/05 04:40:38;;;;;;;65.53;18.33;;;5.00;99.90;;;;;;5137257;27;20043;-75
2022/12/05 04:43:06;;;;;;;61.30;20.52;;;5.00;99.90;;;;;;5102431;27;20383;-75
2022/12/05 04:45:33;;;;;;;64.53;18.25;;;5.00;99.90;;;;;;5119109;27;20475;-76
2022/12/05 04:48:04;;;;;;;69.25;20.25;;;5.10;99.90;;;;;;5136558;27;20505;-75
2022/12/05 04:50:32;;;;;;;58.50;17.92;;;5.10;99.90;;;;;;5136834;27;20047;-78
2022/12/05 04:52:59;;;;;;;68.55;20.30;;;5.00;99.90;;;;;;5136888;27;20466;-77
2022/12/05 04:55:27;;;;;;;69.32;20.75;;;5.10;99.90;;;;;;5136825;27;20047;-78
2022/12/05 04:58:10;;;;;;;64.45;17.88;;;5.00;99.90;;;;;;5136500;27;20491;-81
2022/12/05 05:01:10;;;;;;;66.93;18.38;;;5.00;99.90;;;;;;5136669;27;20066;-76
2022/12/05 05:03:49;;;;;;;60.28;17.52;;;5.00;99.90;;;;;;5137569;27;20054;-77
2022/12/05 05:06:15;;;;;;;57.15;18.48;;;5.10;99.90;;;;;;5118299;27;20122;-77
2022/12/05 05:08:50;;;;;;;64.67;21.90;;;5.10;99.90;;;;;;5136667;27;20039;-76
2022/12/05 05:11:20;;;;;;;60.33;17.63;;;5.10;99.90;;;;;;5117608;27;20054;-77
2022/12/05 05:13:46;;;;;;;54.67;17.30;;;5.00;99.90;;;;;;5136629;27;20104;-77
2022/12/05 05:16:21;;;;;;;52.20;16.15;;;5.10;99.90;;;;;;5136407;27;20108;-77
2022/12/05 05:18:48;;;;;;;53.42;16.02;;;5.10;99.90;;;;;;5137353;27;20035;-76
2022/12/05 05:21:32;;;;;;;50.13;15.23;;;5.10;99.90;;;;;;5118595;27;20481;-77
2022/12/05 05:23:59;;;;;;;48.45;16.08;;;5.10;99.90;;;;;;5136091;27;20054;-76
2022/12/05 05:26:26;;;;;;;50.80;14.60;;;5.20;99.90;;;;;;5136074;27;20054;-77
2022/12/05 05:28:52;;;;;;;45.97;16.55;;;5.20;99.90;;;;;;5117412;27;20131;-80
2022/12/05 05:31:19;;;;;;;49.80;15.75;;;5.20;99.90;;;;;;5118759;27;20086;-77
2022/12/05 05:33:49;;;;;;;55.25;20.65;;;5.30;99.90;;;;;;5101363;27;20056;-78
2022/12/05 05:36:15;;;;;;;40.30;12.95;;;5.20;99.90;;;;;;5117935;27;20095;-76
2022/12/05 05:38:43;;;;;;;44.58;15.98;;;5.30;99.90;;;;;;5136220;27;20043;-78
2022/12/05 05:41:17;;;;;;;44.53;14.98;;;5.30;99.90;;;;;;5136319;27;20043;-76
2022/12/05 05:43:44;;;;;;;45.85;16.15;;;5.20;99.90;;;;;;5118532;27;20050;-77
2022/12/05 05:46:11;;;;;;;42.33;14.47;;;5.30;99.90;;;;;;5118057;27;20098;-76
2022/12/05 05:48:37;;;;;;;46.70;14.80;;;5.30;99.90;;;;;;5136578;27;20281;-80
2022/12/05 05:51:04;;;;;;;45.78;17.13;;;5.30;99.90;;;;;;5136425;27;20043;-78
2022/12/05 05:53:31;;;;;;;45.35;15.15;;;5.30;99.90;;;;;;5136002;27;20050;-77
2022/12/05 05:55:56;;;;;;;41.88;14.02;;;5.30;99.90;;;;;;5100690;27;20380;-79
2022/12/05 05:58:22;;;;;;;42.40;13.85;;;5.30;99.90;;;;;;5135626;27;20074;-74
2022/12/05 06:00:48;;;;;;;45.65;15.88;;;5.30;99.90;;;;;;5135507;27;20512;-76
2022/12/05 06:03:14;;;;;;;42.40;13.25;;;5.30;99.90;;;;;;5135725;27;20515;-77
2022/12/05 06:05:40;;;;;;;47.03;14.85;;;5.20;99.90;;;;;;5117491;27;20064;-81
2022/12/05 06:08:05;;;;;;;43.25;16.00;;;5.30;99.90;;;;;;5117152;27;20047;-77
2022/12/05 06:10:31;;;;;;;38.03;13.25;;;5.30;99.90;;;;;;5135929;27;20043;-75
2022/12/05 06:12:58;;;;;;;39.00;12.75;;;5.30;99.90;;;;;;5117872;27;20039;-80
2022/12/05 06:15:24;;;;;;;37.53;12.45;;;5.30;99.90;;;;;;5118681;27;20113;-77
2022/12/05 06:17:50;;;;;;;45.33;15.00;;;5.30;99.90;;;;;;5117889;27;20043;-75
2022/12/05 06:20:16;;;;;;;42.17;13.77;;;5.30;99.90;;;;;;5136966;27;20058;-76
2022/12/05 06:22:41;;;;;;;39.33;13.98;;;5.30;99.90;;;;;;5118772;27;20047;-76
2022/12/05 06:25:08;;;;;;;43.75;14.90;;;5.30;99.90;;;;;;5119226;27;20039;-75
2022/12/05 06:27:34;;;;;;;39.83;13.48;;;5.30;99.90;;;;;;5120670;27;20096;-83
2022/12/05 06:30:00;;;;;;;39.00;12.95;;;5.30;99.90;;;;;;5120039;27;20039;-77
2022/12/05 06:32:28;;;;;;;40.05;14.63;;;5.30;99.90;;;;;;5122169;27;20047;-78
2022/12/05 06:34:54;;;;;;;36.95;13.77;;;5.30;99.90;;;;;;5120791;27;20065;-75
2022/12/05 06:37:20;;;;;;;35.15;12.52;;;5.40;99.90;;;;;;5139973;27;20039;-75
2022/12/05 06:39:45;;;;;;;33.17;13.57;;;5.40;99.90;;;;;;5141085;27;20591;-75
2022/12/05 06:42:11;;;;;;;33.22;12.48;;;5.40;99.90;;;;;;5144806;27;20066;-76
2022/12/05 06:44:37;;;;;;;32.70;11.27;;;5.40;99.90;;;;;;5089907;27;20083;-77
2022/12/05 06:47:02;;;;;;;34.67;14.30;;;5.40;99.90;;;;;;5142514;27;20039;-77
2022/12/05 06:49:31;;;;;;;32.58;11.70;;;5.40;99.90;;;;;;5112490;27;20039;-75
2022/12/05 06:51:58;;;;;;;29.67;10.52;;;5.40;99.90;;;;;;5128400;27;20155;-80
2022/12/05 06:54:24;;;;;;;25.77;8.85;;;5.40;99.90;;;;;;5111688;27;20070;-78
2022/12/05 06:56:49;;;;;;;25.95;10.05;;;5.40;99.90;;;;;;5147122;27;20072;-80
2022/12/05 06:59:15;;;;;;;22.60;9.35;;;5.40;99.90;;;;;;5113687;27;20051;-77
2022/12/05 07:01:41;;;;;;;21.60;8.80;;;5.50;99.90;;;;;;5148571;27;20051;-80
2022/12/05 07:04:10;;;;;;;18.10;6.88;;;5.50;99.90;;;;;;5130467;27;20122;-82
2022/12/05 07:06:36;;;;;;;24.35;10.88;;;5.50;99.90;;;;;;5144985;27;20129;-79
2022/12/05 07:09:04;;;;;;;24.33;9.00;;;5.50;99.90;;;;;;5127253;27;20050;-79
2022/12/05 07:11:30;;;;;;;23.38;10.95;;;5.40;99.90;;;;;;5126933;28;20618;-80
2022/12/05 07:13:56;;;;;;;25.75;8.35;;;5.30;99.90;;;;;;5147505;27;20058;-76
2022/12/05 07:16:22;;;;;;;25.17;9.00;;;5.30;99.90;;;;;;5131511;27;20051;-78
2022/12/05 07:18:49;;;;;;;23.02;7.72;;;5.20;99.90;;;;;;5149357;27;20504;-81
2022/12/05 07:21:15;;;;;;;24.80;8.30;;;5.20;99.90;;;;;;5130028;27;20047;-79
2022/12/05 07:23:44;;;;;;;26.73;11.15;;;5.20;99.90;;;;;;5146605;27;20043;-75
2022/12/05 07:26:15;;;;;;;23.58;8.30;;;5.10;99.90;;;;;;5147524;27;20097;-79
2022/12/05 07:28:41;;;;;;;32.88;13.77;;;5.10;99.90;;;;;;5145684;27;20043;-77
2022/12/05 07:31:10;;;;;;;26.38;8.27;;;5.10;99.90;;;;;;5146611;27;20054;-78
2022/12/05 07:33:36;;;;;;;26.73;10.05;;;5.10;99.90;;;;;;5147269;27;20054;-77
2022/12/05 07:36:05;;;;;;;21.50;7.70;;;5.10;99.90;;;;;;5146673;27;20096;-76
2022/12/05 07:38:31;;;;;;;22.65;7.15;;;5.10;99.90;;;;;;5148643;27;20046;-81
2022/12/05 07:40:56;;;;;;;13.40;4.55;;;5.10;99.90;;;;;;5146024;27;20042;-78
2022/12/05 07:43:22;;;;;;;18.38;7.53;;;5.10;99.90;;;;;;5125464;28;20046;-80
2022/12/05 07:45:49;;;;;;;19.05;7.35;;;5.10;99.90;;;;;;5127566;28;20096;-78
2022/12/05 07:48:15;;;;;;;18.27;5.33;;;5.20;99.90;;;;;;5127339;28;20043;-75
2022/12/05 07:50:40;;;;;;;15.77;5.60;;;5.20;99.90;;;;;;5145936;28;20045;-76
2022/12/05 07:53:06;;;;;;;16.50;5.18;;;5.30;99.90;;;;;;5126500;28;20040;-77
2022/12/05 07:55:32;;;;;;;13.70;4.75;;;5.20;99.90;;;;;;5127617;28;20047;-81
2022/12/05 07:57:57;;;;;;;13.98;4.80;;;5.20;99.90;;;;;;5124277;28;20055;-77
2022/12/05 08:00:23;;;;;;;14.23;4.38;;;5.30;99.90;;;;;;5122790;27;20050;-77
2022/12/05 08:02:49;;;;;;;13.00;4.00;;;5.30;99.90;;;;;;5120024;28;20130;-79
2022/12/05 08:05:15;;;;;;;12.57;4.43;;;5.30;99.90;;;;;;5139935;28;20039;-80
2022/12/05 08:07:41;;;;;;;13.27;4.25;;;5.30;99.90;;;;;;5126453;28;20078;-79
2022/12/05 08:10:07;;;;;;;12.57;4.55;;;5.30;99.90;;;;;;5126650;28;20103;-80
2022/12/05 08:12:33;;;;;;;16.33;5.15;;;5.30;99.90;;;;;;5147249;28;20080;-77
2022/12/05 08:14:59;;;;;;;14.98;5.40;;;5.30;99.90;;;;;;5127102;28;20039;-76
2022/12/05 08:17:25;;;;;;;16.20;5.53;;;5.30;99.90;;;;;;5126098;28;20359;-76
2022/12/05 08:19:51;;;;;;;16.45;5.15;;;5.30;99.90;;;;;;5143846;28;20050;-78
2022/12/05 08:22:17;;;;;;;17.20;5.40;;;5.40;99.90;;;;;;5126809;28;20476;-83
2022/12/05 08:24:42;;;;;;;14.63;5.05;;;5.40;99.90;;;;;;5143640;28;20043;-79
2022/12/05 08:27:08;;;;;;;21.27;8.25;;;5.50;99.90;;;;;;5144045;28;20039;-78
2022/12/05 08:29:34;;;;;;;16.08;5.75;;;5.40;99.90;;;;;;5142286;28;20059;-75
2022/12/05 08:32:00;;;;;;;19.30;7.78;;;5.40;99.90;;;;;;5142980;28;20049;-78
2022/12/05 08:34:26;;;;;;;18.73;6.10;;;5.40;99.90;;;;;;5123523;28;20058;-83
2022/12/05 08:36:51;;;;;;;18.23;6.60;;;5.40;99.90;;;;;;5105884;28;20051;-79
2022/12/05 08:39:18;;;;;;;16.23;5.47;;;5.40;99.90;;;;;;5122235;28;20054;-78
2022/12/05 08:41:46;;;;;;;18.70;6.38;;;5.50;99.90;;;;;;5142231;28;20043;-82
2022/12/05 08:44:17;;;;;;;18.30;6.97;;;5.50;99.90;;;;;;5122107;28;20054;-78
2022/12/05 08:46:45;;;;;;;16.20;6.00;;;5.50;99.90;;;;;;5143928;27;20162;-76
2022/12/05 08:49:12;;;;;;;18.08;5.97;;;5.50;99.90;;;;;;5144304;27;20083;-76
2022/12/05 08:51:39;;;;;;;19.00;7.82;;;5.50;99.90;;;;;;5126655;27;20154;-79
2022/12/05 08:54:05;;;;;;;17.70;4.95;;;5.50;99.90;;;;;;5143184;27;20043;-76
2022/12/05 08:56:34;;;;;;;17.55;5.47;;;5.50;99.90;;;;;;5125333;27;20051;-80
2022/12/05 08:59:01;;;;;;;14.82;5.90;;;5.50;99.90;;;;;;5126357;27;20051;-80
2022/12/05 09:01:30;;;;;;;22.45;11.57;;;5.60;99.90;;;;;;5141260;27;20063;-81
2022/12/05 09:03:59;;;;;;;18.25;5.93;;;5.50;99.90;;;;;;5129408;27;20066;-78
2022/12/05 09:06:25;;;;;;;15.55;5.68;;;5.60;99.90;;;;;;5112131;27;20046;-78
2022/12/05 09:08:57;;;;;;;18.85;5.93;;;5.60;99.90;;;;;;5143973;27;20047;-76
2022/12/05 09:11:27;;;;;;;18.80;5.80;;;5.50;99.90;;;;;;5127575;27;20130;-78
2022/12/05 09:13:54;;;;;;;19.42;6.20;;;5.60;99.90;;;;;;5147690;27;20122;-76
2022/12/05 09:16:23;;;;;;;19.33;5.85;;;5.60;99.90;;;;;;5128576;27;20047;-77
2022/12/05 09:18:50;;;;;;;20.20;6.22;;;5.50;99.90;;;;;;5147731;27;20050;-79
2022/12/05 09:21:19;;;;;;;19.23;6.88;;;5.50;99.90;;;;;;5111988;27;20084;-77
2022/12/05 09:23:45;;;;;;;13.57;4.38;;;5.60;99.90;;;;;;5127170;27;20043;-77
2022/12/05 09:26:14;;;;;;;19.40;6.68;;;5.50;99.90;;;;;;5145665;27;20043;-82
2022/12/05 09:28:41;;;;;;;15.48;5.05;;;5.60;99.90;;;;;;5128652;27;20114;-77
2022/12/05 09:31:09;;;;;;;20.20;6.80;;;5.50;99.90;;;;;;5144617;27;20130;-77
2022/12/05 09:33:36;;;;;;;22.42;10.25;;;5.60;99.90;;;;;;5144401;27;20051;-78
2022/12/05 09:36:04;;;;;;;19.13;5.32;;;5.40;99.90;;;;;;5108682;27;20055;-78
2022/12/05 09:38:30;;;;;;;;;;;5.40;99.90;;;;;;5127079;27;20047;-76
2022/12/05 09:41:10;;;;;;;17.70;5.60;;;5.40;99.90;;;;;;5143305;27;19968;-74
2022/12/05 09:43:50;;;;;;;20.13;6.40;;;5.40;99.90;;;;;;5125247;27;20062;-78
2022/12/05 09:46:16;;;;;;;17.55;5.82;;;5.40;99.90;;;;;;5142719;27;20115;-78
2022/12/05 09:48:43;;;;;;;18.67;6.03;;;5.50;99.90;;;;;;5124425;27;20039;-75
2022/12/05 09:51:11;;;;;;;20.42;6.90;;;5.50;99.90;;;;;;5122196;27;20047;-78
2022/12/05 09:53:39;;;;;;;20.20;7.28;;;5.50;99.90;;;;;;5105163;27;20039;-75
2022/12/05 09:56:08;;;;;;;21.67;5.90;;;5.40;99.90;;;;;;5121838;27;20069;-79
2022/12/05 09:58:37;;;;;;;20.65;8.82;;;5.30;99.90;;;;;;5139469;27;20362;-82
2022/12/05 10:01:30;;;;;;;24.15;9.07;;;5.30;99.90;;;;;;5139980;27;20143;-78
2022/12/05 10:04:12;;;;;;;19.35;5.93;;;5.30;99.90;;;;;;5121343;27;20059;-78
2022/12/05 10:06:56;;;;;;;21.40;6.57;;;5.20;99.90;;;;;;5121259;27;20467;-76
2022/12/05 10:09:43;;;;;;;20.02;6.85;;;5.20;99.90;;;;;;5140572;27;20047;-81
2022/12/05 10:12:30;;;;;;;22.08;7.60;;;5.20;99.90;;;;;;5104629;27;20051;-80
2022/12/05 10:14:56;;;;;;;20.90;6.25;;;5.20;99.90;;;;;;5138755;27;20062;-80
2022/12/05 10:17:31;;;;;;;23.08;6.90;;;5.20;99.90;;;;;;5118774;27;20468;-77
2022/12/05 10:20:03;;;;;;;27.05;6.38;;;5.10;99.90;;;;;;5137012;27;20100;-80
2022/12/05 10:22:47;;;;;;;21.10;6.13;;;5.10;99.90;;;;;;5119169;27;20494;-78
2022/12/05 10:25:17;;;;;;;18.75;6.32;;;5.10;99.90;;;;;;5136829;27;20058;-76
2022/12/05 10:27:51;;;;;;;23.02;6.95;;;5.10;99.90;;;;;;5137959;27;20126;-80
2022/12/05 10:30:23;;;;;;;17.20;6.15;;;5.10;99.90;;;;;;5137067;27;20102;-82
2022/12/05 10:32:57;;;;;;;18.02;5.30;;;5.10;99.90;;;;;;5118145;27;20185;-76
2022/12/05 10:35:33;;;;;;;19.73;6.22;;;5.10;99.90;;;;;;5135717;27;20039;-77
2022/12/05 10:38:03;;;;;;;20.00;6.40;;;5.10;99.90;;;;;;5136306;27;20086;-79
2022/12/05 10:40:45;;;;;;;21.27;6.53;;;5.20;99.90;;;;;;5117803;27;20112;-76
2022/12/05 10:43:15;;;;;;;17.23;5.70;;;5.10;99.90;;;;;;5117556;27;20051;-78
2022/12/05 10:45:46;;;;;;;22.00;6.18;;;5.10;99.90;;;;;;5116758;27;20047;-76
2022/12/05 10:48:14;;;;;;;18.05;5.68;;;5.20;99.90;;;;;;5099177;27;20099;-75
2022/12/05 10:50:43;;;;;;;21.80;7.68;;;5.10;99.90;;;;;;5116135;27;20497;-76
2022/12/05 10:53:16;;;;;;;22.80;7.07;;;5.00;99.90;;;;;;5134894;27;20039;-79
2022/12/05 10:55:46;;;;;;;19.52;6.07;;;5.00;99.90;;;;;;5116316;27;20040;-79
2022/12/05 10:58:13;;;;;;;21.77;6.80;;;5.00;99.90;;;;;;5134240;27;20487;-75
2022/12/05 11:00:43;;;;;;;;;;;5.10;99.90;;;;;;5116467;27;20054;-79
2022/12/05 11:03:21;;;;;;;21.23;6.10;;;5.10;99.90;;;;;;5134452;27;19989;-77
2022/12/05 11:05:49;;;;;;;22.70;7.20;;;5.10;99.90;;;;;;5135203;27;20054;-78
2022/12/05 11:08:35;;;;;;;20.65;5.63;;;5.10;99.90;;;;;;5115912;27;20043;-82
2022/12/05 11:11:07;;;;;;;18.42;5.80;;;5.10;99.90;;;;;;5116139;27;20536;-77
2022/12/05 11:13:33;;;;;;;22.08;7.43;;;5.10;99.90;;;;;;5134405;27;20043;-81
2022/12/05 11:16:00;;;;;;;22.10;6.32;;;5.10;99.90;;;;;;5134950;27;20047;-78
2022/12/05 11:18:32;;;;;;;19.92;6.15;;;5.10;99.90;;;;;;5116294;27;20055;-79
2022/12/05 11:21:13;;;;;;;25.33;7.18;;;5.10;99.90;;;;;;5116083;27;20129;-77
2022/12/05 11:23:39;;;;;;;25.92;7.63;;;5.00;99.90;;;;;;5133536;27;20544;-80
2022/12/05 11:26:32;;;;;;;23.90;7.70;;;5.00;99.90;;;;;;5098688;27;20051;-77
2022/12/05 11:28:58;;;;;;;26.92;8.77;;;5.00;99.90;;;;;;5133929;27;20086;-77
2022/12/05 11:31:31;;;;;;;21.67;7.28;;;5.00;99.90;;;;;;5135676;27;20062;-84
2022/12/05 11:34:20;;;;;;;26.40;8.23;;;5.00;99.90;;;;;;5135504;27;20043;-81
2022/12/05 11:36:55;;;;;;;30.73;10.63;;;5.00;99.90;;;;;;5116719;27;20063;-80
2022/12/05 11:39:23;;;;;;;29.23;8.15;;;5.00;99.90;;;;;;5098821;27;20039;-81
2022/12/05 11:41:51;;;;;;;26.13;9.40;;;5.00;99.90;;;;;;5135174;27;20047;-80
2022/12/05 11:44:17;;;;;;;30.15;8.02;;;5.10;99.90;;;;;;5135147;27;20156;-80
2022/12/05 11:46:46;;;;;;;26.90;8.30;;;5.10;99.90;;;;;;5115543;28;20147;-81
2022/12/05 11:49:50;;;;;;;22.83;7.70;;;5.10;99.90;;;;;;5116063;28;20043;-79
2022/12/05 11:52:42;;;;;;;28.90;9.18;;;5.10;99.90;;;;;;5134377;28;20086;-80
2022/12/05 11:55:30;;;;;;;23.00;7.50;;;5.00;99.90;;;;;;5099597;28;20055;-82
2022/12/05 11:58:18;;;;;;;32.20;8.15;;;5.10;99.90;;;;;;5099935;28;20108;-77
2022/12/05 12:00:56;;;;;;;27.13;8.45;;;5.10;99.90;;;;;;5133802;27;20058;-79
2022/12/05 12:03:45;;;;;;;25.27;8.10;;;5.10;99.90;;;;;;5099899;28;20374;-81
2022/12/05 12:07:06;;;;;;;26.30;8.15;;;5.10;99.90;;;;;;5116200;28;20081;-77
2022/12/05 12:09:40;;;;;;;20.48;7.38;;;5.10;99.90;;;;;;5092341;28;20053;-80
2022/12/05 12:12:16;;;;;;;25.25;9.18;;;5.10;99.90;;;;;;5134877;28;20051;-79
2022/12/05 12:15:02;;;;;;;27.88;8.73;;;5.10;99.90;;;;;;5133943;28;20039;-77
2022/12/05 12:17:55;;;;;;;23.65;7.63;;;5.10;99.90;;;;;;5135225;28;20093;-77
2022/12/05 12:20:47;;;;;;;25.90;9.23;;;5.10;99.90;;;;;;5115910;28;20050;-80
2022/12/05 12:23:24;;;;;;;23.13;6.35;;;5.10;99.90;;;;;;5140517;27;20083;-80
2022/12/05 12:26:13;;;;;;;22.35;6.65;;;5.10;99.90;;;;;;5138355;27;20042;-84
2022/12/05 12:28:42;;;;;;;28.02;9.98;;;5.10;99.90;;;;;;5119620;27;20035;-77
2022/12/05 12:31:25;;;;;;;22.23;7.05;;;5.10;99.90;;;;;;5103061;27;20051;-77
2022/12/05 12:34:16;;;;;;;19.60;6.80;;;5.10;99.90;;;;;;5137856;27;20065;-80
2022/12/05 12:36:47;;;;;;;20.65;7.40;;;5.10;99.90;;;;;;5137774;27;20043;-79
2022/12/05 12:39:19;;;;;;;21.48;6.88;;;5.10;99.90;;;;;;5137388;27;20039;-80
2022/12/05 12:42:11;;;;;;;22.17;6.80;;;5.10;99.90;;;;;;5118560;27;20099;-81
2022/12/05 12:44:43;;;;;;;19.90;6.32;;;5.10;99.90;;;;;;5137575;27;20065;-79
2022/12/05 12:47:26;;;;;;;22.42;6.60;;;5.10;99.90;;;;;;5137646;27;20405;-80
2022/12/05 12:50:04;;;;;;;22.08;6.63;;;5.10;99.90;;;;;;5137506;27;20062;-76
2022/12/05 12:52:58;;;;;;;21.08;6.95;;;5.10;99.90;;;;;;5102561;27;20131;-81
2022/12/05 12:55:42;;;;;;;23.90;5.82;;;5.10;99.90;;;;;;5137866;27;20097;-81
2022/12/05 12:58:26;;;;;;;20.48;6.30;;;5.10;99.90;;;;;;5101574;27;20379;-80
2022/12/05 13:01:24;;;;;;;16.95;5.53;;;5.10;99.90;;;;;;5119452;27;20074;-80
2022/12/05 13:04:01;;;;;;;19.48;6.03;;;5.10;99.90;;;;;;5118806;27;20498;-82
2022/12/05 13:07:02;;;;;;;19.40;6.20;;;5.10;99.90;;;;;;5118594;27;20043;-77
2022/12/05 13:09:40;;;;;;;18.83;5.57;;;5.10;99.90;;;;;;5126059;27;20152;-81
2022/12/05 13:12:11;;;;;;;15.68;5.32;;;5.10;99.90;;;;;;5138742;27;20156;-82
2022/12/05 13:14:40;;;;;;;19.10;5.55;;;5.10;99.90;;;;;;5118996;27;20111;-82